Terminal Aerodrome Forecast
Issued by NWS Twin Cities, MN

Home | Current Version | Previous Version | Text Only | Print | Product List | Glossary Off
Versions: 1 2 3 4 5 6 7 8 9 10 11 12 13 14 15 16 17 18 19 20

000
FTUS43 KMPX 251739
TAFEAU
TAF
KEAU 251739Z 2518/2618 12011KT P6SM VCSH SCT050 BKN080
      TEMPO 2519/2522 3SM TSRA SCT020 BKN050CB
     FM252200 13008KT P6SM -SHRA OVC025
     FM260100 15007KT 6SM BR SCT020
     FM260700 18003KT 4SM BR SCT007
      TEMPO 2608/2612 1SM BR BKN007
     FM261200 22007KT P6SM BKN050=

USA.gov is the U.S. government's official web portal to all federal, state and local government web resources and services.